createdAt,value
2022-10-05T03:19:15.087Z,99155.63
2022-10-05T03:22:38.926Z,99160.44
2022-10-05T03:26:01.390Z,99167.06
2022-10-05T03:29:25.304Z,99171.59
2022-10-05T03:32:47.806Z,99168.78
2022-10-05T03:36:07.659Z,99176.00
2022-10-05T03:39:25.932Z,99180.34
2022-10-05T03:42:48.490Z,99184.56
2022-10-05T03:46:06.230Z,99180.78
2022-10-05T03:49:24.639Z,99191.16
2022-10-05T03:52:40.981Z,99196.59
2022-10-05T03:55:56.319Z,99191.78
2022-10-05T03:59:15.672Z,99192.06
2022-10-05T04:02:30.331Z,99187.88
2022-10-05T04:05:47.031Z,99198.53
2022-10-05T04:09:03.698Z,99186.31
2022-10-05T04:12:23.496Z,99193.25
2022-10-05T04:15:40.047Z,99189.75
2022-10-05T04:18:55.951Z,99188.06
2022-10-05T04:22:10.934Z,99191.22
2022-10-05T04:25:27.269Z,99194.47
2022-10-05T04:28:46.364Z,99193.41
2022-10-05T04:32:09.897Z,99192.78
2022-10-05T04:35:34.071Z,99187.34
2022-10-05T04:38:54.485Z,99190.75
2022-10-05T04:42:14.035Z,99190.03
2022-10-05T04:45:35.815Z,99190.63
2022-10-05T04:49:03.390Z,99186.41
2022-10-05T04:52:23.479Z,99191.53
2022-10-05T04:55:43.424Z,99190.03
2022-10-05T04:59:15.982Z,99197.06
2022-10-05T07:13:11.734Z,99199.19
2022-10-05T07:16:29.712Z,99199.91
2022-10-05T07:19:52.293Z,99191.41
2022-10-05T07:23:14.664Z,99200.53
2022-10-05T07:26:31.870Z,99196.31
2022-10-05T07:29:51.982Z,99196.25
2022-10-05T07:33:09.643Z,99195.41
2022-10-05T07:36:38.319Z,99201.13
2022-10-05T07:40:01.566Z,99200.16
2022-10-05T07:43:23.376Z,99205.53
2022-10-05T07:46:47.448Z,99208.75
2022-10-05T07:50:04.035Z,99205.13
2022-10-05T07:53:19.814Z,99210.81
2022-10-05T07:56:37.669Z,99207.41
2022-10-05T07:59:56.731Z,99210.25
2022-10-05T08:03:15.923Z,99209.53
2022-10-05T08:06:39.220Z,99208.97
2022-10-05T08:09:55.862Z,99210.91
2022-10-05T08:13:13.203Z,99201.13
2022-10-05T08:16:28.364Z,99192.41
2022-10-05T08:19:47.489Z,99204.31
2022-10-05T08:23:02.755Z,99201.13
2022-10-05T08:26:19.547Z,99204.50
2022-10-05T08:29:35.365Z,99200.31
2022-10-05T08:32:51.517Z,99192.13
2022-10-05T08:36:09.257Z,99199.00
2022-10-05T08:39:21.461Z,99194.53
2022-10-05T08:42:49.380Z,99187.38
2022-10-05T08:46:19.348Z,99180.53
2022-10-05T08:49:50.235Z,99183.03
2022-10-05T08:53:29.470Z,99180.78
2022-10-05T08:56:44.274Z,99177.59
2022-10-05T09:00:06.218Z,99183.75
2022-10-05T09:03:32.220Z,99177.03
2022-10-05T09:07:07.512Z,99179.19
2022-10-05T09:10:52.655Z,99177.16
2022-10-05T09:14:22.620Z,99183.63
2022-10-05T09:17:52.401Z,99177.41
2022-10-05T09:21:07.571Z,99181.97
2022-10-05T09:24:28.564Z,99171.22
2022-10-05T09:27:45.604Z,99179.63
2022-10-05T09:31:01.681Z,99179.28
2022-10-05T09:34:31.558Z,99181.63
2022-10-05T09:38:08.378Z,99181.00
2022-10-05T09:41:39.610Z,99178.03
2022-10-05T09:45:22.643Z,99178.03
2022-10-05T09:48:57.100Z,99176.50
2022-10-05T09:52:19.093Z,99182.25
2022-10-05T09:55:49.367Z,99176.41
2022-10-05T09:59:21.219Z,99166.97
2022-10-05T10:02:52.352Z,99159.31
2022-10-05T10:06:20.504Z,99153.22
2022-10-05T10:09:39.507Z,99151.84
2022-10-05T10:13:08.895Z,99152.22
2022-10-05T10:16:31.075Z,99154.94
2022-10-05T10:20:05.415Z,99149.97
2022-10-05T10:23:29.407Z,99146.56
2022-10-05T10:27:03.285Z,99148.69
2022-10-05T10:30:32.032Z,99151.91
2022-10-05T10:34:09.014Z,99139.44
2022-10-05T10:37:39.138Z,99146.81
2022-10-05T10:41:08.615Z,99151.09
2022-10-05T10:44:49.067Z,99145.50
2022-10-05T10:48:03.227Z,99145.44
2022-10-05T10:51:20.164Z,99151.56
2022-10-05T10:54:55.289Z,99149.28
2022-10-05T10:58:40.776Z,99141.97
2022-10-05T11:02:10.646Z,99135.31
2022-10-05T11:05:37.213Z,99139.09
2022-10-05T11:09:14.401Z,99120.75
2022-10-05T11:12:57.991Z,99126.16
2022-10-05T11:16:30.100Z,99110.25
2022-10-05T11:20:05.019Z,99109.13
2022-10-05T11:23:37.915Z,99116.47
2022-10-05T11:27:07.705Z,99105.53
2022-10-05T11:30:36.411Z,99094.25
2022-10-05T11:34:11.356Z,99095.72
2022-10-05T11:37:41.610Z,99093.59
2022-10-05T11:41:14.780Z,99105.53
2022-10-05T11:45:07.905Z,99090.50
2022-10-05T11:48:31.589Z,99081.56
2022-10-05T11:51:51.957Z,99077.19
2022-10-05T11:55:15.439Z,99079.44
2022-10-05T11:58:30.211Z,99087.13
2022-10-05T12:01:45.620Z,99089.28
2022-10-05T12:05:10.907Z,99080.28
2022-10-05T12:08:32.556Z,99070.34
2022-10-05T12:11:57.711Z,99068.69
2022-10-05T12:15:18.425Z,99057.75
2022-10-05T12:18:47.764Z,99045.25
2022-10-05T12:22:04.479Z,99057.84
2022-10-05T12:25:22.874Z,99057.00
2022-10-05T12:28:37.756Z,99066.56
2022-10-05T12:31:56.537Z,99059.84
2022-10-05T12:35:36.241Z,99051.47
2022-10-05T12:38:54.691Z,99045.22
2022-10-05T12:42:17.877Z,99038.06
2022-10-05T12:45:38.509Z,99031.88
2022-10-05T12:49:04.057Z,99027.47
2022-10-05T12:52:28.226Z,99022.41
2022-10-05T12:55:48.740Z,99022.00
2022-10-05T12:59:05.947Z,99021.84
2022-10-05T13:02:27.122Z,99015.13
2022-10-05T13:05:46.026Z,99020.25
2022-10-05T13:09:02.825Z,99010.28
2022-10-05T13:12:25.960Z,99012.31
2022-10-05T13:15:43.645Z,99013.47
2022-10-05T13:19:07.375Z,99004.19
2022-10-05T13:22:26.481Z,99000.78
2022-10-05T13:25:44.019Z,99005.84
2022-10-05T13:29:00.453Z,99003.91
2022-10-05T13:32:17.138Z,99010.09
2022-10-05T13:35:40.310Z,99005.94
2022-10-05T13:38:57.735Z,99003.91
2022-10-05T13:42:14.173Z,98994.94
2022-10-05T13:45:26.985Z,99003.41
2022-10-05T13:48:51.679Z,98993.44
2022-10-05T13:52:15.789Z,98994.00
2022-10-05T13:55:38.584Z,98994.03
2022-10-05T13:58:52.696Z,98987.66
2022-10-05T14:02:08.980Z,98992.50
2022-10-05T14:05:21.816Z,98983.31
2022-10-05T14:08:34.384Z,98986.09
2022-10-05T14:11:50.718Z,98980.44
2022-10-05T14:15:20.520Z,98977.75
2022-10-05T14:18:32.791Z,98977.75
2022-10-05T14:21:49.453Z,98975.31
2022-10-05T14:25:16.249Z,98972.06
2022-10-05T14:28:29.771Z,98971.81
2022-10-05T14:31:48.812Z,98972.53
2022-10-05T14:35:14.976Z,98962.31
2022-10-05T14:38:29.464Z,98958.09
2022-10-05T14:41:46.965Z,98955.19
2022-10-05T14:45:00.418Z,98953.19
2022-10-05T14:48:12.265Z,98943.00
2022-10-05T14:51:31.752Z,98949.16
2022-10-05T14:54:53.874Z,98943.59
2022-10-05T14:58:16.644Z,98935.28
2022-10-05T15:01:30.873Z,98937.97
2022-10-05T15:04:43.823Z,98931.63
2022-10-05T15:08:01.133Z,98924.09
2022-10-05T15:11:18.024Z,98911.94
2022-10-05T15:14:31.729Z,98911.50
2022-10-05T15:17:47.495Z,98913.31
2022-10-05T15:21:16.839Z,98909.75
2022-10-05T15:24:38.918Z,98904.63
2022-10-05T15:28:04.516Z,98896.47
2022-10-05T15:31:24.560Z,98900.53
2022-10-05T15:34:42.312Z,98904.53
2022-10-05T15:37:57.645Z,98903.38
2022-10-05T15:41:15.960Z,98905.75
2022-10-05T15:44:39.306Z,98908.97
2022-10-05T15:47:57.204Z,98913.38
2022-10-05T15:51:18.497Z,98903.88
2022-10-05T15:54:52.453Z,98902.25
2022-10-05T15:58:22.856Z,98909.22
2022-10-05T16:01:48.159Z,98918.88
2022-10-05T16:05:08.661Z,98916.09
2022-10-05T16:08:48.637Z,98922.66
2022-10-05T16:12:07.148Z,98919.41
2022-10-05T16:15:26.594Z,98930.63
2022-10-05T16:18:49.041Z,98933.72
2022-10-05T16:22:08.807Z,98938.25
2022-10-05T16:25:23.344Z,98934.84
2022-10-05T16:28:44.491Z,98934.59
2022-10-05T16:32:01.635Z,98950.31
2022-10-05T16:35:20.762Z,98948.06
2022-10-05T16:38:39.877Z,98951.97
2022-10-05T16:41:58.780Z,98955.38
2022-10-05T16:45:22.659Z,98964.03
2022-10-05T16:49:18.953Z,98965.97
2022-10-05T16:52:30.273Z,98969.69
2022-10-05T16:55:48.766Z,98966.44
2022-10-05T16:59:11.148Z,98969.81
2022-10-05T17:02:36.856Z,98979.56
2022-10-05T17:06:06.424Z,98982.84
2022-10-05T17:09:39.517Z,98985.97
2022-10-05T17:13:04.369Z,98996.19
2022-10-05T17:16:28.655Z,98996.03
2022-10-05T17:19:53.679Z,99005.19
2022-10-05T17:23:18.937Z,99005.69
2022-10-05T17:26:55.112Z,99008.91
2022-10-05T17:30:23.349Z,99013.97
2022-10-05T17:33:38.374Z,99020.81
2022-10-05T17:37:00.213Z,99023.47
2022-10-05T17:40:33.007Z,99022.66
2022-10-05T17:44:20.702Z,99028.75
2022-10-05T17:47:58.584Z,99032.25
2022-10-05T17:51:31.177Z,99046.47
2022-10-05T17:55:15.554Z,99048.56
2022-10-05T17:58:54.979Z,99051.78
2022-10-05T18:02:23.848Z,99062.94
2022-10-05T18:05:37.242Z,99059.19
2022-10-05T18:08:50.120Z,99062.88
2022-10-05T18:12:25.954Z,99068.06
2022-10-05T18:15:51.798Z,99069.03
2022-10-05T18:19:17.023Z,99077.78
2022-10-05T18:22:30.833Z,99079.16
2022-10-05T18:25:49.509Z,99084.44
2022-10-05T18:29:37.984Z,99093.03
2022-10-05T18:33:06.212Z,99094.34
2022-10-05T18:36:37.626Z,99109.91
2022-10-05T18:40:13.765Z,99104.34
2022-10-05T18:43:32.392Z,99113.69
2022-10-05T18:46:54.548Z,99119.13
2022-10-05T18:50:21.692Z,99115.19
2022-10-05T18:53:44.543Z,99123.97
2022-10-05T18:56:56.112Z,99118.94
2022-10-05T19:00:16.358Z,99113.19
2022-10-05T19:03:39.258Z,99136.28
2022-10-05T19:06:57.061Z,99130.44
2022-10-05T19:10:21.435Z,99138.41
2022-10-05T19:13:44.518Z,99141.63
2022-10-05T19:17:12.620Z,99137.50
2022-10-05T19:20:32.805Z,99146.69
2022-10-05T19:23:58.844Z,99147.81
2022-10-05T19:27:28.155Z,99152.84
2022-10-05T19:31:00.334Z,99165.56
2022-10-05T19:34:21.052Z,99166.31
2022-10-05T19:37:46.013Z,99179.53
2022-10-05T19:41:04.935Z,99177.94
2022-10-05T19:44:30.728Z,99183.13
2022-10-05T19:47:53.671Z,99177.94
2022-10-05T19:51:13.570Z,99196.56
2022-10-05T19:54:30.261Z,99197.75
2022-10-05T19:57:51.512Z,99206.25
2022-10-05T20:01:07.328Z,99204.53
2022-10-05T20:04:34.433Z,99205.50
2022-10-05T20:07:47.723Z,99214.44
2022-10-05T20:11:09.389Z,99218.66
2022-10-05T20:14:31.625Z,99219.44
2022-10-05T20:17:55.121Z,99234.66
2022-10-05T20:21:06.438Z,99239.66
2022-10-05T20:24:21.921Z,99248.63
2022-10-05T20:27:44.258Z,99251.09
2022-10-05T20:30:55.747Z,99248.84
2022-10-05T20:34:08.457Z,99254.50
2022-10-05T20:37:21.150Z,99261.44
